首页
METAR-TAF:

METAR-TAF

机场 :

美国海军学院

安那波利斯, 马里兰州, 美国

纬度: 38-59-29N, 经度: 076-29-00W, 海拔: 2米

当前天气观测

该预报发布于43分钟前的02:54 UTC
风速4节,风向
温度 27°C
湿度 70%
气压 1005 hPa
能見度: 16.1公里
少量云层高于3700英尺

METAR: KNAK 200254Z AUTO 17004KT 10SM FEW037 27/21 A2969 RMK AO2 RAB32E41 SLP057 P0000 60000 T02670211 55003 $

时间: 23:37 (03:37 UTC)


TAF: 丢失

超过4000个机场的气象观测和天气预报(METAR&TAF报告)。

可查询的气象台以黄色和红色小点在地图上表示。

将鼠标移到小点上方,可查看气象台名称。

然后点击查看天气观测和预报。

如需切换地图:点击带黑十字的绿色按钮放大地图;点击带横线的绿色按钮缩小地图;或者点击绿色箭头查看邻近地区的地图。


METAR-TAF: